Time;durP1;ratioP1;P1;durP2;ratioP2;P2;SDS_P1;SDS_P2;PMS_P1;PMS_P2;Temp;Humidity;BMP_temperature;BMP_pressure;BME280_temperature;BME280_humidity;BME280_pressure;Samples;Min_cycle;Max_cycle;Signal;HPM_P1;HPM_P2
2022/07/20 00:04:45;;;;;;;8.48;5.13;;;30.80;46.50;;;;;;10173736;28;20016;-60
2022/07/20 00:14:44;;;;;;;7.13;4.05;;;30.30;47.00;;;;;;10174947;28;20031;-59
2022/07/20 00:19:35;;;;;;;10.93;4.28;;;30.30;47.30;;;;;;10173636;28;20063;-60
2022/07/20 00:24:26;;;;;;;5.95;4.10;;;30.40;47.40;;;;;;10170129;28;20399;-58
2022/07/20 00:29:16;;;;;;;7.05;4.65;;;30.20;47.60;;;;;;10174840;28;20024;-61
2022/07/20 00:34:07;;;;;;;10.23;5.32;;;30.00;47.60;;;;;;10166452;28;20046;-60
2022/07/20 00:38:58;;;;;;;7.40;4.07;;;29.90;47.90;;;;;;10172261;28;20043;-59
2022/07/20 00:43:52;;;;;;;5.85;3.50;;;29.90;47.90;;;;;;10173385;28;20107;-57
2022/07/20 00:48:43;;;;;;;;;;;29.90;48.00;;;;;;10167340;28;20094;-59
2022/07/20 00:53:33;;;;;;;4.70;3.38;;;29.60;47.90;;;;;;10167602;28;20389;-56
2022/07/20 00:58:24;;;;;;;7.60;3.50;;;29.70;47.90;;;;;;10175727;28;20287;-56
2022/07/20 01:03:14;;;;;;;7.15;3.63;;;29.80;47.90;;;;;;10169472;28;20389;-59
2022/07/20 01:08:05;;;;;;;3.92;3.58;;;29.80;47.90;;;;;;10155797;28;20386;-62
2022/07/20 01:12:57;;;;;;;4.50;3.67;;;29.80;47.80;;;;;;10166711;28;20490;-57
2022/07/20 01:17:47;;;;;;;6.43;3.67;;;29.70;47.80;;;;;;10167835;28;20047;-57
2022/07/20 01:22:38;;;;;;;5.40;3.60;;;29.70;47.90;;;;;;10168762;28;20567;-59
2022/07/20 01:27:29;;;;;;;8.02;3.65;;;29.70;48.00;;;;;;10163377;28;20028;-59
2022/07/20 01:32:19;;;;;;;11.30;4.50;;;29.70;48.00;;;;;;10163119;28;20089;-55
2022/07/20 01:37:10;;;;;;;6.78;3.70;;;29.70;48.00;;;;;;10172557;28;20422;-58
2022/07/20 01:42:00;;;;;;;6.90;3.75;;;29.60;48.10;;;;;;10172783;28;20024;-59
2022/07/20 01:46:51;;;;;;;6.10;3.80;;;29.50;48.10;;;;;;10172331;28;20221;-60
2022/07/20 01:51:42;;;;;;;3.80;3.17;;;29.50;48.10;;;;;;10171776;28;20020;-55
2022/07/20 01:56:33;;;;;;;6.72;3.35;;;29.40;48.10;;;;;;10172119;28;20546;-56
2022/07/20 02:01:24;;;;;;;6.53;3.50;;;29.30;48.20;;;;;;10171069;28;20050;-59
2022/07/20 02:06:14;;;;;;;6.70;3.95;;;29.10;48.40;;;;;;10181035;28;20008;-59
2022/07/20 02:11:05;;;;;;;5.43;3.75;;;28.80;48.80;;;;;;10172995;28;20036;-57
2022/07/20 02:21:05;;;;;;;6.63;3.42;;;28.50;49.60;;;;;;10179015;28;20078;-56
2022/07/20 02:25:55;;;;;;;5.47;3.90;;;28.70;49.60;;;;;;10179247;28;20031;-56
2022/07/20 02:30:46;;;;;;;5.43;3.30;;;28.70;49.60;;;;;;10172404;28;20024;-55
2022/07/20 02:35:37;;;;;;;4.70;3.47;;;28.60;49.90;;;;;;10173408;28;20140;-57
2022/07/20 02:40:27;;;;;;;7.05;3.95;;;28.50;50.10;;;;;;10178532;28;20364;-57
2022/07/20 02:45:18;;;;;;;4.85;3.83;;;28.60;50.30;;;;;;10175234;28;20043;-57
2022/07/20 02:50:09;;;;;;;9.10;4.03;;;28.50;50.50;;;;;;10178284;28;20039;-57
2022/07/20 02:54:59;;;;;;;6.43;3.83;;;28.50;50.70;;;;;;10177138;28;20038;-57
2022/07/20 02:59:50;;;;;;;7.22;4.45;;;28.40;51.10;;;;;;10177778;28;20058;-56
2022/07/20 03:04:41;;;;;;;8.93;4.18;;;28.40;51.50;;;;;;10175556;28;20072;-56
2022/07/20 03:09:31;;;;;;;6.75;4.32;;;28.40;52.00;;;;;;10166422;28;20043;-58
2022/07/20 03:14:22;;;;;;;10.60;4.20;;;28.30;52.50;;;;;;10155580;28;20085;-56
2022/07/20 03:19:12;;;;;;;8.55;3.58;;;28.30;52.70;;;;;;10168944;28;20051;-55
2022/07/20 03:24:03;;;;;;;4.53;3.75;;;28.20;52.60;;;;;;10169960;28;20123;-56
2022/07/20 03:28:54;;;;;;;5.25;3.15;;;28.20;52.40;;;;;;10177338;28;20037;-60
2022/07/20 03:33:45;;;;;;;4.70;3.88;;;28.10;52.50;;;;;;10170868;28;20049;-56
2022/07/20 03:38:35;;;;;;;6.95;3.78;;;27.80;52.60;;;;;;10170090;28;20450;-53
2022/07/20 03:43:27;;;;;;;6.43;3.88;;;27.40;53.20;;;;;;10176298;28;20031;-56
2022/07/20 03:48:18;;;;;;;5.07;3.80;;;27.00;53.70;;;;;;10175372;28;20020;-54
2022/07/20 03:53:09;;;;;;;7.03;3.85;;;26.70;54.30;;;;;;10171773;28;20518;-57
2022/07/20 03:57:59;;;;;;;5.10;4.35;;;26.70;54.50;;;;;;10175412;28;20163;-56
2022/07/20 04:02:50;;;;;;;5.70;3.60;;;26.70;54.40;;;;;;10175004;28;20039;-56
2022/07/20 04:07:41;;;;;;;4.60;3.83;;;26.80;54.20;;;;;;10173003;28;20573;-54
2022/07/20 04:12:32;;;;;;;7.45;4.03;;;26.70;54.40;;;;;;10174245;28;20032;-57
2022/07/20 04:17:23;;;;;;;7.60;3.97;;;26.90;54.40;;;;;;10174923;28;20400;-55
2022/07/20 04:22:13;;;;;;;5.45;3.08;;;27.10;54.10;;;;;;10166582;28;20028;-56
2022/07/20 04:27:04;;;;;;;7.03;3.70;;;27.20;54.00;;;;;;10174241;28;20054;-53
2022/07/20 04:31:57;;;;;;;6.28;3.80;;;27.30;54.00;;;;;;10173675;28;20131;-55
2022/07/20 04:36:47;;;;;;;7.03;3.50;;;27.30;54.00;;;;;;10160252;28;20023;-58
2022/07/20 04:41:38;;;;;;;3.35;3.00;;;27.50;53.80;;;;;;10173227;28;20040;-56
2022/07/20 04:46:29;;;;;;;6.07;3.85;;;27.40;53.90;;;;;;10173528;28;20016;-59
2022/07/20 04:51:19;;;;;;;8.38;3.90;;;27.40;53.90;;;;;;10171221;28;20482;-54
2022/07/20 04:56:10;;;;;;;4.50;4.10;;;27.40;54.20;;;;;;10173387;28;20024;-57
2022/07/20 05:01:01;;;;;;;6.20;3.80;;;27.40;54.20;;;;;;10171176;28;20198;-58
2022/07/20 05:05:51;;;;;;;6.35;3.80;;;27.30;54.20;;;;;;10169423;28;20024;-57
2022/07/20 05:10:42;;;;;;;6.28;3.65;;;27.40;54.10;;;;;;10171664;28;20035;-56
2022/07/20 05:15:32;;;;;;;7.82;3.63;;;27.40;54.20;;;;;;10168556;28;20385;-58
2022/07/20 05:20:23;;;;;;;16.13;5.75;;;27.50;54.30;;;;;;10170742;28;20474;-53
2022/07/20 05:25:14;;;;;;;4.25;3.55;;;27.60;54.30;;;;;;10173320;28;20087;-57
2022/07/20 05:30:05;;;;;;;5.60;3.63;;;27.70;54.20;;;;;;10172455;28;20042;-55
2022/07/20 05:34:56;;;;;;;6.03;4.22;;;27.70;54.30;;;;;;10164323;28;20082;-55
2022/07/20 05:39:46;;;;;;;8.98;4.15;;;27.80;54.10;;;;;;10171832;28;20063;-55
2022/07/20 05:44:38;;;;;;;4.75;3.70;;;27.80;54.30;;;;;;10169154;28;20013;-56
2022/07/20 05:49:28;;;;;;;5.18;3.90;;;28.00;54.00;;;;;;10169718;28;20514;-57
2022/07/20 05:54:19;;;;;;;8.45;3.67;;;28.10;54.00;;;;;;10183803;28;20024;-60
2022/07/20 05:59:09;;;;;;;7.45;4.10;;;28.10;53.70;;;;;;10168310;28;20036;-56
2022/07/20 06:04:00;;;;;;;8.45;4.38;;;28.20;53.70;;;;;;10171559;28;20434;-56
2022/07/20 06:08:51;;;;;;;6.25;3.67;;;28.20;53.50;;;;;;10173240;28;20490;-55
2022/07/20 06:13:41;;;;;;;8.90;5.75;;;28.40;53.10;;;;;;10171350;28;20104;-56
2022/07/20 06:18:32;;;;;;;9.93;3.95;;;28.50;52.90;;;;;;10172391;28;20478;-58
2022/07/20 06:23:23;;;;;;;8.27;3.97;;;28.60;52.50;;;;;;10171014;28;20437;-57
2022/07/20 06:28:14;;;;;;;6.82;3.83;;;28.80;52.20;;;;;;10171556;28;20105;-57
2022/07/20 06:33:04;;;;;;;4.63;3.72;;;28.90;52.00;;;;;;10168127;28;20063;-58
2022/07/20 06:37:56;;;;;;;4.35;3.38;;;29.00;51.80;;;;;;10169778;28;20020;-59
2022/07/20 06:42:47;;;;;;;7.55;3.97;;;29.00;51.60;;;;;;10168607;28;20130;-58
2022/07/20 06:47:37;;;;;;;7.78;3.28;;;29.20;51.50;;;;;;10172217;28;20582;-59
2022/07/20 06:52:30;;;;;;;7.72;4.32;;;29.20;51.50;;;;;;10174607;28;20032;-59
2022/07/20 06:57:20;;;;;;;6.20;3.30;;;29.30;51.20;;;;;;10176501;28;20119;-59
2022/07/20 07:02:11;;;;;;;6.28;3.67;;;29.50;50.90;;;;;;10177398;28;20107;-58
2022/07/20 07:07:02;;;;;;;6.60;3.83;;;29.50;50.70;;;;;;10191661;28;20024;-56
2022/07/20 07:11:52;;;;;;;4.75;4.13;;;29.60;50.60;;;;;;10175790;28;20035;-56
2022/07/20 07:16:43;;;;;;;10.68;3.97;;;29.70;50.60;;;;;;10176864;28;20475;-58
2022/07/20 07:21:33;;;;;;;5.55;3.33;;;29.70;50.60;;;;;;10172720;28;20089;-55
2022/07/20 07:26:24;;;;;;;5.88;4.30;;;30.00;50.40;;;;;;10175501;28;20504;-58
2022/07/20 07:31:17;;;;;;;4.93;3.55;;;30.00;50.10;;;;;;10175032;28;20033;-58
2022/07/20 07:36:07;;;;;;;7.47;3.90;;;30.10;50.00;;;;;;10175007;28;20099;-60
2022/07/20 07:40:58;;;;;;;6.65;4.40;;;30.20;49.70;;;;;;10174375;28;20040;-56
2022/07/20 07:45:49;;;;;;;4.45;3.90;;;30.20;49.60;;;;;;10175478;28;20483;-57
2022/07/20 07:50:41;;;;;;;5.68;3.42;;;30.20;49.40;;;;;;10170087;28;20032;-58
2022/07/20 07:55:32;;;;;;;6.28;4.43;;;30.30;49.30;;;;;;10171232;28;20024;-56
2022/07/20 08:00:23;;;;;;;5.28;3.40;;;30.30;49.20;;;;;;10175154;28;20055;-59
2022/07/20 08:05:13;;;;;;;5.90;4.10;;;30.50;49.00;;;;;;10171569;28;20080;-57
2022/07/20 08:10:05;;;;;;;5.07;3.45;;;30.40;49.00;;;;;;10172059;28;20402;-58
2022/07/20 08:14:55;;;;;;;6.90;4.47;;;30.60;49.00;;;;;;10167934;28;20032;-59
2022/07/20 08:19:46;;;;;;;5.88;3.15;;;30.80;48.90;;;;;;10174467;28;20458;-60
2022/07/20 08:24:37;;;;;;;6.60;3.72;;;30.80;48.90;;;;;;10174502;28;20166;-59
2022/07/20 08:29:27;;;;;;;8.63;4.88;;;30.90;48.90;;;;;;10174714;28;20024;-56
2022/07/20 08:34:18;;;;;;;9.35;5.85;;;31.00;49.00;;;;;;10166315;28;20440;-57
2022/07/20 08:39:09;;;;;;;13.23;7.13;;;31.10;49.60;;;;;;10172754;28;20062;-56
2022/07/20 08:43:59;;;;;;;11.23;8.07;;;30.90;49.60;;;;;;10169737;28;20028;-59
2022/07/20 08:48:51;;;;;;;11.48;8.02;;;31.00;49.90;;;;;;10170564;28;20024;-59
2022/07/20 08:53:42;;;;;;;17.67;10.70;;;31.00;50.30;;;;;;10172260;28;20024;-60
2022/07/20 08:58:33;;;;;;;19.00;13.15;;;31.10;50.90;;;;;;10170700;28;20028;-61
2022/07/20 09:03:24;;;;;;;15.50;12.05;;;31.20;51.50;;;;;;10168224;28;20031;-60
2022/07/20 09:08:17;;;;;;;14.10;11.70;;;31.20;52.20;;;;;;10171642;28;20028;-59
2022/07/20 09:13:17;;;;;;;21.23;12.68;;;31.40;52.70;;;;;;10170088;28;20020;-60
2022/07/20 09:18:14;;;;;;;16.52;11.77;;;31.40;53.10;;;;;;10171076;28;20405;-60
2022/07/20 09:23:11;;;;;;;13.95;11.18;;;31.50;53.70;;;;;;10167845;28;20040;-58
2022/07/20 09:28:02;;;;;;;21.23;12.63;;;31.80;54.00;;;;;;10165712;28;20016;-60
2022/07/20 09:33:02;;;;;;;17.95;12.23;;;31.90;53.80;;;;;;10161211;28;20063;-59
2022/07/20 09:37:55;;;;;;;19.38;12.18;;;31.80;54.10;;;;;;10170912;28;20051;-59
2022/07/20 09:42:47;;;;;;;18.65;13.27;;;32.00;54.20;;;;;;10169491;28;20109;-59
2022/07/20 09:47:37;;;;;;;14.70;10.23;;;32.00;54.10;;;;;;10169472;28;20062;-59
2022/07/20 09:52:28;;;;;;;16.88;12.07;;;32.20;54.30;;;;;;10170924;28;20027;-59
2022/07/20 09:57:21;;;;;;;19.58;12.30;;;32.30;54.20;;;;;;10171079;28;20040;-60
2022/07/20 10:02:12;;;;;;;16.65;11.43;;;32.60;53.90;;;;;;10166694;28;20397;-60
2022/07/20 10:07:03;;;;;;;16.75;12.35;;;32.70;53.80;;;;;;10171365;28;20047;-59
2022/07/20 10:11:54;;;;;;;13.32;10.00;;;32.70;53.80;;;;;;10167739;28;20032;-60
2022/07/20 10:16:47;;;;;;;14.38;9.75;;;32.60;53.50;;;;;;10166938;28;20542;-59
2022/07/20 10:21:38;;;;;;;;;;;32.60;53.00;;;;;;10171450;28;20591;-61
2022/07/20 10:26:28;;;;;;;15.18;10.23;;;32.60;52.50;;;;;;10178466;28;20279;-57
2022/07/20 10:31:19;;;;;;;15.70;10.25;;;32.50;52.20;;;;;;10178190;28;20056;-59
2022/07/20 10:41:33;;;;;;;14.38;10.68;;;33.20;50.90;;;;;;10173819;28;20556;-59
2022/07/20 10:46:35;;;;;;;13.13;10.10;;;33.10;50.50;;;;;;10178213;28;20028;-59
2022/07/20 10:51:26;;;;;;;18.50;11.73;;;32.90;50.60;;;;;;10165017;28;20041;-59
2022/07/20 10:56:29;;;;;;;10.88;9.82;;;32.70;50.80;;;;;;10176756;28;20036;-59
2022/07/20 11:01:19;;;;;;;12.77;11.03;;;32.90;50.50;;;;;;10179662;28;20028;-59
2022/07/20 11:06:10;;;;;;;23.42;12.65;;;32.90;50.60;;;;;;10174796;28;20403;-59
2022/07/20 11:11:01;;;;;;;17.05;10.85;;;32.90;50.70;;;;;;10178489;28;20520;-59
2022/07/20 11:15:58;;;;;;;14.45;11.48;;;32.90;50.70;;;;;;10178701;28;20425;-59
2022/07/20 11:20:54;;;;;;;19.70;12.48;;;33.00;50.60;;;;;;10174428;28;20148;-59
2022/07/20 11:25:55;;;;;;;14.15;11.10;;;33.20;50.60;;;;;;10178197;28;20270;-59
2022/07/20 11:30:47;;;;;;;20.83;11.45;;;33.30;50.70;;;;;;10176313;28;20481;-60
2022/07/20 11:35:38;;;;;;;14.52;10.93;;;33.30;50.80;;;;;;10179040;28;20028;-60
2022/07/20 11:40:28;;;;;;;14.98;10.88;;;33.00;51.10;;;;;;10170589;28;20119;-63
2022/07/20 11:45:26;;;;;;;14.60;11.00;;;32.90;51.30;;;;;;10175785;28;20067;-61
2022/07/20 11:50:17;;;;;;;17.33;11.32;;;33.00;51.10;;;;;;10168599;28;20401;-60
2022/07/20 11:55:09;;;;;;;14.02;11.70;;;33.10;51.10;;;;;;10171135;28;20020;-62
2022/07/20 12:00:03;;;;;;;17.60;11.05;;;32.90;51.10;;;;;;10172988;28;20044;-60
2022/07/20 12:04:55;;;;;;;10.57;8.70;;;32.80;51.10;;;;;;10175165;28;20067;-61
2022/07/20 12:09:45;;;;;;;14.73;8.95;;;32.60;51.30;;;;;;10174719;28;20552;-61
2022/07/20 12:14:37;;;;;;;13.75;8.77;;;32.40;51.10;;;;;;10175007;28;20514;-61
2022/07/20 12:19:28;;;;;;;10.65;8.77;;;32.30;51.10;;;;;;10166258;28;20151;-59
2022/07/20 12:24:18;;;;;;;11.60;8.60;;;32.30;51.00;;;;;;10175060;28;20182;-63
2022/07/20 12:29:26;;;;;;;9.45;7.72;;;32.40;50.90;;;;;;10174124;28;20032;-59
2022/07/20 12:34:17;;;;;;;13.52;8.50;;;33.00;50.40;;;;;;10170671;28;20044;-59
2022/07/20 12:39:10;;;;;;;12.15;8.32;;;33.60;50.10;;;;;;10172622;28;20031;-60
2022/07/20 12:44:28;;;;;;;13.43;9.93;;;34.30;49.70;;;;;;10170791;28;20024;-59
2022/07/20 12:49:27;;;;;;;12.05;9.52;;;34.80;49.00;;;;;;10171153;28;20256;-58
2022/07/20 12:54:19;;;;;;;12.65;9.57;;;34.90;49.30;;;;;;10187262;28;20329;-59
2022/07/20 12:59:11;;;;;;;11.63;9.13;;;35.40;49.10;;;;;;10171510;28;20305;-54
2022/07/20 13:04:01;;;;;;;14.70;9.90;;;35.80;48.80;;;;;;10170406;28;20055;-56
2022/07/20 13:08:52;;;;;;;13.68;8.45;;;36.60;48.30;;;;;;10172203;28;20055;-57
2022/07/20 13:13:43;;;;;;;11.73;8.73;;;36.70;47.60;;;;;;10171492;28;20019;-57
2022/07/20 13:18:33;;;;;;;10.37;8.77;;;35.90;47.80;;;;;;10169753;28;20486;-59
2022/07/20 13:23:24;;;;;;;13.47;8.60;;;36.20;47.20;;;;;;10170495;28;20498;-59
2022/07/20 13:28:16;;;;;;;10.70;9.43;;;37.90;46.30;;;;;;10171789;28;20012;-58
2022/07/20 13:33:08;;;;;;;11.55;8.90;;;38.90;45.50;;;;;;10166637;28;20067;-60
2022/07/20 13:37:58;;;;;;;12.10;9.50;;;37.40;45.80;;;;;;10170875;28;20322;-51
2022/07/20 13:42:49;;;;;;;11.15;9.43;;;35.90;46.70;;;;;;10170337;28;20074;-59
2022/07/20 13:47:40;;;;;;;14.27;9.80;;;35.30;47.00;;;;;;10170813;28;20039;-59
2022/07/20 13:52:31;;;;;;;10.40;8.63;;;35.90;47.10;;;;;;10170803;28;20028;-58
2022/07/20 13:57:22;;;;;;;9.77;8.47;;;37.50;45.70;;;;;;10171824;28;20046;-58
2022/07/20 14:02:12;;;;;;;13.52;8.55;;;38.60;45.30;;;;;;10179571;28;20032;-57
2022/07/20 14:07:03;;;;;;;10.38;8.48;;;40.10;44.50;;;;;;10179503;28;20024;-57
2022/07/20 14:11:54;;;;;;;11.20;8.13;;;37.80;45.20;;;;;;10180997;28;20124;-58
2022/07/20 14:16:44;;;;;;;10.73;8.60;;;38.50;45.50;;;;;;10169435;28;20550;-58
2022/07/20 14:21:35;;;;;;;10.82;9.55;;;40.40;43.80;;;;;;10175893;28;20512;-58
2022/07/20 14:26:26;;;;;;;13.07;10.17;;;38.90;44.10;;;;;;10179110;28;20028;-59
2022/07/20 14:31:16;;;;;;;;;;;39.10;44.80;;;;;;10175356;28;20274;-61
2022/07/20 14:36:07;;;;;;;10.20;9.17;;;39.90;43.50;;;;;;10176119;28;19919;-57
2022/07/20 14:40:58;;;;;;;11.18;8.85;;;40.20;43.50;;;;;;10175358;28;20397;-56
2022/07/20 14:45:48;;;;;;;;;;;39.60;43.40;;;;;;10177615;28;20028;-62
2022/07/20 14:50:39;;;;;;;10.47;8.67;;;39.40;43.10;;;;;;10175229;28;19935;-58
2022/07/20 14:55:30;;;;;;;;;;;39.40;43.10;;;;;;10177209;28;20359;-58
2022/07/20 15:00:21;;;;;;;10.27;8.50;;;39.00;43.00;;;;;;10176677;28;19919;-58
2022/07/20 15:05:12;;;;;;;10.83;8.43;;;37.70;43.90;;;;;;10177094;28;20016;-58
2022/07/20 15:10:06;;;;;;;9.23;8.33;;;36.90;44.20;;;;;;10175717;28;20024;-57
2022/07/20 15:14:56;;;;;;;11.20;8.85;;;38.20;43.30;;;;;;10176728;28;20520;-59
2022/07/20 15:19:47;;;;;;;9.77;8.07;;;38.10;42.90;;;;;;10174658;28;20035;-60
2022/07/20 15:24:38;;;;;;;11.15;8.25;;;36.30;44.60;;;;;;10175559;28;20024;-65
2022/07/20 15:29:29;;;;;;;15.00;8.55;;;35.40;45.30;;;;;;10179094;28;20024;-56
2022/07/20 15:34:20;;;;;;;13.23;9.25;;;34.80;45.60;;;;;;10170556;28;20045;-57
2022/07/20 15:39:10;;;;;;;12.27;8.68;;;34.40;46.00;;;;;;10174940;28;20109;-57
2022/07/20 15:44:01;;;;;;;15.00;8.90;;;34.00;46.30;;;;;;10175311;28;20268;-57
2022/07/20 15:48:53;;;;;;;12.68;8.07;;;33.80;46.90;;;;;;10175362;28;20074;-58
2022/07/20 15:53:44;;;;;;;12.05;8.80;;;33.40;47.20;;;;;;10172500;28;20016;-59
2022/07/20 15:58:37;;;;;;;10.93;7.75;;;33.20;47.70;;;;;;10172102;28;20494;-54
2022/07/20 16:03:28;;;;;;;;;;;33.00;48.20;;;;;;10173625;28;20031;-55
2022/07/20 16:08:19;;;;;;;13.95;10.18;;;33.00;48.40;;;;;;10172583;28;19919;-60
2022/07/20 16:13:10;;;;;;;11.55;9.30;;;32.90;48.40;;;;;;10173822;28;20606;-54
2022/07/20 16:18:01;;;;;;;12.70;7.72;;;32.80;49.00;;;;;;10173698;28;20035;-59
2022/07/20 16:22:51;;;;;;;13.10;9.60;;;32.30;49.90;;;;;;10173223;28;20024;-59
2022/07/20 16:27:43;;;;;;;15.95;10.27;;;32.00;51.00;;;;;;10173726;28;20018;-62
2022/07/20 16:32:34;;;;;;;12.38;9.32;;;31.90;51.80;;;;;;10165710;28;20073;-58
2022/07/20 16:37:25;;;;;;;16.23;9.70;;;30.20;53.10;;;;;;10178530;28;20111;-55
2022/07/20 16:42:16;;;;;;;15.88;10.45;;;29.40;56.00;;;;;;10175276;28;20047;-53
2022/07/20 16:47:07;;;;;;;12.55;8.80;;;29.50;57.60;;;;;;10162779;28;20024;-52
2022/07/20 16:51:57;;;;;;;15.93;9.88;;;29.90;58.00;;;;;;10174351;28;20016;-53
2022/07/20 16:56:51;;;;;;;14.55;9.20;;;30.10;58.50;;;;;;10173125;28;20422;-66
2022/07/20 17:01:42;;;;;;;12.10;7.97;;;28.60;61.80;;;;;;10170452;28;20135;-57
2022/07/20 17:06:33;;;;;;;14.73;8.95;;;28.20;63.90;;;;;;10173394;28;20115;-59
2022/07/20 17:11:24;;;;;;;10.05;6.95;;;28.20;63.30;;;;;;10172547;28;20031;-59
2022/07/20 17:16:15;;;;;;;10.85;6.88;;;28.00;64.50;;;;;;10168988;28;20016;-61
2022/07/20 17:21:05;;;;;;;10.23;6.47;;;28.00;63.90;;;;;;10171008;28;20032;-61
2022/07/20 17:25:56;;;;;;;12.10;6.65;;;27.90;64.30;;;;;;10173446;28;20062;-61
2022/07/20 17:30:47;;;;;;;18.65;11.07;;;28.10;64.70;;;;;;10165509;28;20419;-60
2022/07/20 17:35:38;;;;;;;10.63;7.28;;;28.30;65.00;;;;;;10165854;28;20228;-60
2022/07/20 17:40:30;;;;;;;9.23;7.20;;;28.10;65.80;;;;;;10172726;28;20114;-59
2022/07/20 17:45:21;;;;;;;9.95;7.13;;;28.00;66.80;;;;;;10166147;28;20062;-62
2022/07/20 17:50:12;;;;;;;27.30;19.02;;;28.10;66.90;;;;;;10167047;28;20094;-60
2022/07/20 17:55:05;;;;;;;68.32;38.40;;;28.40;67.00;;;;;;10171901;28;20028;-57
2022/07/20 17:59:56;;;;;;;47.55;28.30;;;28.50;66.90;;;;;;10160219;28;20760;-59
2022/07/20 18:04:46;;;;;;;27.00;17.42;;;28.60;67.30;;;;;;10172490;28;20039;-59
2022/07/20 18:09:37;;;;;;;15.55;10.65;;;28.60;67.60;;;;;;10172078;28;20024;-60
2022/07/20 18:14:28;;;;;;;19.08;8.77;;;28.60;67.70;;;;;;10159629;28;20013;-61
2022/07/20 18:19:19;;;;;;;17.13;9.40;;;28.60;67.70;;;;;;10168744;28;20039;-61
2022/07/20 18:24:09;;;;;;;15.82;7.88;;;28.70;68.00;;;;;;10168432;28;20424;-60
2022/07/20 18:29:00;;;;;;;9.88;7.82;;;28.70;67.80;;;;;;10168623;28;20030;-60
2022/07/20 18:33:51;;;;;;;11.93;8.02;;;28.50;68.30;;;;;;10161259;28;20048;-59
2022/07/20 18:38:43;;;;;;;9.43;7.40;;;28.40;68.30;;;;;;10164541;28;20063;-58
2022/07/20 18:43:34;;;;;;;12.15;6.82;;;28.30;68.40;;;;;;10172842;28;20414;-58
2022/07/20 18:48:30;;;;;;;10.70;7.15;;;28.00;68.80;;;;;;10179037;28;20553;-58
2022/07/20 18:53:22;;;;;;;12.68;7.63;;;27.50;70.10;;;;;;10177215;28;20020;-61
2022/07/20 18:58:12;;;;;;;8.60;6.57;;;27.50;70.20;;;;;;10177888;28;20439;-59
2022/07/20 19:03:04;;;;;;;14.63;7.35;;;27.10;70.40;;;;;;10177230;28;20530;-58
2022/07/20 19:07:55;;;;;;;11.70;6.65;;;27.00;71.00;;;;;;10178432;28;20122;-59
2022/07/20 19:12:46;;;;;;;16.65;8.25;;;26.70;71.70;;;;;;10178984;28;20108;-59
2022/07/20 19:17:38;;;;;;;12.30;8.07;;;26.40;72.40;;;;;;10178352;28;20115;-59
2022/07/20 19:22:29;;;;;;;13.07;7.80;;;26.20;73.60;;;;;;10171930;28;20089;-59
2022/07/20 19:27:20;;;;;;;12.63;8.10;;;25.90;74.60;;;;;;10178053;28;20100;-60
2022/07/20 19:32:10;;;;;;;17.55;8.43;;;25.90;75.50;;;;;;10175600;28;20040;-59
2022/07/20 19:37:01;;;;;;;9.73;8.35;;;25.90;75.60;;;;;;10168571;28;20047;-61
2022/07/20 19:41:57;;;;;;;12.43;8.07;;;25.90;75.80;;;;;;10176632;28;20162;-61
2022/07/20 19:46:48;;;;;;;11.27;8.20;;;26.20;75.80;;;;;;10177804;28;20101;-59
2022/07/20 19:51:39;;;;;;;10.82;7.20;;;26.40;75.70;;;;;;10176237;28;20402;-61
2022/07/20 19:56:30;;;;;;;8.35;6.93;;;26.70;75.40;;;;;;10175535;28;20040;-59
2022/07/20 20:01:22;;;;;;;12.10;8.27;;;26.80;75.20;;;;;;10176711;28;20039;-62
2022/07/20 20:06:13;;;;;;;10.68;9.00;;;27.10;75.10;;;;;;10173323;28;20024;-59
2022/07/20 20:11:04;;;;;;;18.90;8.73;;;26.70;75.40;;;;;;10174647;28;20449;-59
2022/07/20 20:15:54;;;;;;;12.68;8.32;;;26.50;76.20;;;;;;10176028;28;20624;-59
2022/07/20 20:20:45;;;;;;;14.57;8.10;;;26.50;76.70;;;;;;10173798;28;20391;-60
2022/07/20 20:25:35;;;;;;;12.55;8.93;;;25.90;77.30;;;;;;10173562;28;20012;-59
2022/07/20 20:30:26;;;;;;;11.45;6.88;;;24.50;81.60;;;;;;10173914;28;20506;-59
2022/07/20 20:35:17;;;;;;;11.32;7.85;;;24.10;83.60;;;;;;10161665;28;20045;-60
2022/07/20 20:40:08;;;;;;;11.40;7.78;;;24.50;83.30;;;;;;10167926;28;20560;-60
2022/07/20 20:44:59;;;;;;;11.43;6.97;;;24.60;83.80;;;;;;10160094;28;20033;-60
2022/07/20 20:49:49;;;;;;;10.15;6.55;;;24.00;86.00;;;;;;10144594;28;20332;-59
2022/07/20 20:54:40;;;;;;;9.57;7.18;;;23.90;87.90;;;;;;10169222;28;20034;-65
2022/07/20 20:59:31;;;;;;;11.68;6.78;;;23.90;89.80;;;;;;10158547;28;20131;-61
2022/07/20 21:04:22;;;;;;;10.77;7.80;;;24.00;90.20;;;;;;10169602;28;20024;-60
2022/07/20 21:09:12;;;;;;;11.68;7.68;;;24.10;90.60;;;;;;10172124;28;20473;-60
2022/07/20 21:14:03;;;;;;;13.00;6.35;;;24.60;90.70;;;;;;10173235;28;20044;-60
2022/07/20 21:18:54;;;;;;;11.82;6.30;;;24.40;91.00;;;;;;10167298;28;20044;-60
2022/07/20 21:23:45;;;;;;;9.27;6.22;;;24.10;92.10;;;;;;10160107;28;20093;-63
2022/07/20 21:28:35;;;;;;;9.10;6.50;;;24.00;92.70;;;;;;10166182;28;20027;-60
2022/07/20 21:33:26;;;;;;;9.73;6.88;;;24.20;92.90;;;;;;10160089;28;20178;-60
2022/07/20 21:38:17;;;;;;;9.18;6.97;;;24.10;93.40;;;;;;10165421;28;20032;-60
2022/07/20 21:43:08;;;;;;;9.95;6.70;;;24.10;93.90;;;;;;10151468;28;20062;-59
2022/07/20 21:47:59;;;;;;;9.88;6.22;;;24.10;94.40;;;;;;10170369;28;20056;-62
2022/07/20 21:52:50;;;;;;;9.90;6.20;;;24.10;94.80;;;;;;10167727;28;20151;-60
2022/07/20 21:57:40;;;;;;;10.10;7.07;;;24.20;95.00;;;;;;10172138;28;20178;-59
2022/07/20 22:02:31;;;;;;;12.02;6.22;;;24.10;95.60;;;;;;10165957;28;20037;-61
2022/07/20 22:07:21;;;;;;;11.27;6.50;;;24.00;96.10;;;;;;10172111;28;20031;-60
2022/07/20 22:12:12;;;;;;;7.70;5.72;;;24.00;96.50;;;;;;10171956;28;20024;-60
2022/07/20 22:17:03;;;;;;;8.18;5.68;;;23.90;97.10;;;;;;10170827;28;20020;-58
2022/07/20 22:21:53;;;;;;;7.68;5.22;;;23.80;97.50;;;;;;10179083;28;20517;-58
2022/07/20 22:26:44;;;;;;;6.25;3.70;;;23.70;98.00;;;;;;10180485;28;20023;-59
2022/07/20 22:31:35;;;;;;;4.68;3.28;;;23.70;98.20;;;;;;10176446;28;20051;-58
2022/07/20 22:36:26;;;;;;;4.47;2.75;;;23.70;98.10;;;;;;10174638;28;20124;-61
2022/07/20 22:41:16;;;;;;;4.57;2.60;;;23.70;98.30;;;;;;10180630;28;20502;-60
2022/07/20 22:46:07;;;;;;;5.65;2.65;;;23.70;98.20;;;;;;10167560;28;20517;-60
2022/07/20 22:50:58;;;;;;;4.93;3.67;;;23.60;98.20;;;;;;10178827;28;20028;-59
2022/07/20 22:55:48;;;;;;;5.30;3.40;;;23.50;98.30;;;;;;10179581;28;20024;-60
2022/07/20 23:00:39;;;;;;;3.65;2.80;;;23.40;98.60;;;;;;10175932;28;20036;-61
2022/07/20 23:05:30;;;;;;;5.60;3.28;;;23.40;98.70;;;;;;10181161;28;20528;-60
2022/07/20 23:10:22;;;;;;;7.25;2.90;;;23.30;98.70;;;;;;10184018;28;20032;-60
2022/07/20 23:15:13;;;;;;;5.53;2.97;;;23.30;98.80;;;;;;10172973;28;20027;-60
2022/07/20 23:20:08;;;;;;;5.13;2.90;;;23.40;98.70;;;;;;10179004;28;20497;-61
2022/07/20 23:24:59;;;;;;;6.75;2.70;;;23.30;98.80;;;;;;10178914;28;20553;-61
2022/07/20 23:29:50;;;;;;;4.15;3.40;;;23.40;98.90;;;;;;10171398;28;20124;-60
2022/07/20 23:34:41;;;;;;;4.45;3.58;;;23.40;98.90;;;;;;10171641;28;20131;-61
2022/07/20 23:39:31;;;;;;;6.18;3.60;;;23.50;99.10;;;;;;10177062;28;20496;-59
2022/07/20 23:44:22;;;;;;;6.75;3.90;;;23.50;99.10;;;;;;10167175;28;20035;-59
2022/07/20 23:49:13;;;;;;;5.95;3.75;;;23.50;99.40;;;;;;10164552;28;20597;-59
2022/07/20 23:54:03;;;;;;;5.75;4.28;;;23.40;99.50;;;;;;10168187;28;20081;-61
2022/07/20 23:58:54;;;;;;;8.40;4.35;;;23.40;99.60;;;;;;10170077;28;20075;-61
